CST,Max TemperatureF,Mean TemperatureF,Min TemperatureF,Max Dew PointF,MeanDew PointF,Min DewpointF,Max Humidity, Mean Humidity, Min Humidity, Max Sea Level PressureIn, Mean Sea Level PressureIn, Min Sea Level PressureIn, Max VisibilityMiles, Mean VisibilityMiles, Min VisibilityMiles, Max Wind SpeedMPH, Mean Wind SpeedMPH, Max Gust SpeedMPH,PrecipitationIn, CloudCover, Events, WindDirDegrees
2013-2-1,15,7,-1,12,2,-6,96,81,66,30.42,30.31,30.17,10,8,1,24,13,29,T,3,Snow,242
2013-2-2,23,13,3,21,13,1,92,79,66,30.17,30.07,30.00,10,6,1,25,10,29,T,7,Snow,241
2013-2-3,21,15,9,19,13,4,92,80,68,30.09,30.03,29.96,10,5,1,22,9,25,T,8,Snow,261
2013-2-4,27,14,1,22,17,-1,92,83,74,30.03,29.93,29.85,10,7,1,15,9,17,T,6,Snow,44
2013-2-5,30,16,1,28,20,1,95,84,72,30.11,29.91,29.81,10,5,0,21,8,25,0.01,7,Fog-Snow,266
2013-2-6,37,21,5,30,21,6,100,84,68,30.25,30.18,30.11,10,8,4,15,6,18,0.00,3,,141
2013-2-7,34,31,28,34,31,27,100,91,82,30.12,29.96,29.86,6,2,0,24,8,29,0.88,8,Fog-Rain-Snow,86
2013-2-8,28,24,19,27,20,17,92,87,81,30.42,30.25,29.96,10,9,2,25,13,30,T,5,Snow,337
2013-2-9,31,27,22,27,23,21,96,86,75,30.42,30.28,30.09,10,8,6,21,9,25,0.00,5,,151
2013-2-10,46,36,26,45,36,26,100,85,70,30.09,29.71,29.48,10,6,2,28,17,36,0.47,7,Rain,156
2013-2-11,42,35,28,32,25,21,76,71,66,30.07,29.78,29.55,10,10,10,40,26,48,T,8,,261
2013-2-12,30,25,20,22,20,18,92,81,69,30.13,30.05,29.94,10,9,6,24,10,29,0.00,5,,263
2013-2-13,42,31,19,33,26,18,96,83,70,29.92,29.80,29.74,10,6,2,15,5,17,0.00,2,,220
2013-2-14,39,35,31,31,29,26,89,80,70,30.00,29.81,29.67,10,9,2,26,12,33,T,7,Snow,257
2013-2-15,32,26,19,28,18,10,85,69,53,30.21,30.14,29.98,10,10,8,22,14,28,T,5,Snow,319
2013-2-16,21,15,9,11,6,4,83,67,51,30.23,30.20,30.15,10,10,10,18,11,23,0.00,2,,319
2013-2-17,30,18,6,18,9,3,88,65,42,30.25,30.18,30.00,10,10,10,15,6,18,0.00,0,,154
2013-2-18,53,40,26,45,33,19,93,76,59,29.98,29.62,29.43,10,8,2,36,17,43,0.36,5,Rain-Snow,211
2013-2-19,27,18,9,21,9,2,88,81,73,30.24,29.88,29.65,10,6,2,37,25,44,T,7,Snow,276
2013-2-20,22,14,6,13,6,0,80,74,67,30.40,30.36,30.27,10,10,10,21,11,25,0.00,0,,318
2013-2-21,30,21,12,24,19,10,92,84,75,30.40,30.22,29.99,10,8,1,25,12,33,T,7,Snow,58
2013-2-22,34,29,24,31,25,21,100,88,75,29.96,29.87,29.80,10,5,1,24,13,32,0.06,8,Snow,166
2013-2-23,27,20,12,22,18,11,92,80,68,30.01,29.96,29.91,10,9,6,20,11,23,T,6,,249
2013-2-24,35,21,6,23,16,6,92,77,61,30.17,30.12,30.01,10,8,4,8,1,9,0.00,0,,282
2013-2-25,43,30,17,28,24,15,92,71,49,30.19,30.11,29.95,10,8,5,15,5,20,0.00,0,,93
2013-2-26,36,34,32,31,29,26,92,81,70,29.94,29.59,29.51,10,4,0,31,21,40,0.08,7,Fog-Snow,47
2013-2-27,33,31,29,31,29,27,92,89,85,29.74,29.61,29.52,10,6,1,23,15,26,0.01,8,Snow,329
2013-2-28,35,31,27,30,27,20,92,81,69,30.10,29.92,29.74,10,8,3,20,15,24,T,8,Snow,347